metar:  

KBOI 201331Z 13006KT 1SM R10R/P6000FT -SN BR VV016 M03/M04 A2969 RMK AO2 P0002 T10281039